RYR29YF LIPE-GCFV
Flight info
| Callsign | RYR29YF |
|---|---|
| Flight time | N/A |
| Altitude | 35000 |
| Route | LUPOS DCT BORDI DCT PADKO UM984 DIVKO G7 MAMES M984 BISBA DCT RODRA M985 MGA N851 VJF L82 RUNAX UL82 IBALU UN857 TERTO |
| Aircraft | B738/M-SDE3FGILRWY/SB1 |
Departure
| Time | 2026-05-05 10:21 |
|---|---|
| Airport | Bologna Guglielmo Marconi Airport (LIPE) |
Arrival
| Time | N/A |
|---|---|
| Airport | Fuerteventura Airport (GCFV) |
| Time | Latitude | Longitude | Altitude | Speed | Heading |
|---|---|---|---|---|---|
| 2026-05-05 09:48 | 44.53102 | 11.29230 | 131 ft | 0 kts | 207° |
| 2026-05-05 10:16 | 44.53101 | 11.29229 | 131 ft | 1 kts | 206° |
| 2026-05-05 10:16 | 44.53081 | 11.29223 | 131 ft | 4 kts | 173° |
| 2026-05-05 10:17 | 44.53073 | 11.29247 | 131 ft | 4 kts | 66° |
| 2026-05-05 10:17 | 44.53112 | 11.29263 | 131 ft | 7 kts | 329° |
| 2026-05-05 10:17 | 44.53149 | 11.29230 | 131 ft | 5 kts | 326° |
| 2026-05-05 10:17 | 44.53180 | 11.29187 | 131 ft | 11 kts | 296° |
| 2026-05-05 10:18 | 44.53236 | 11.29040 | 131 ft | 22 kts | 297° |
| 2026-05-05 10:18 | 44.53315 | 11.28829 | 131 ft | 16 kts | 309° |
| 2026-05-05 10:18 | 44.53390 | 11.28759 | 131 ft | 16 kts | 299° |
| 2026-05-05 10:18 | 44.53454 | 11.28574 | 131 ft | 26 kts | 297° |
| 2026-05-05 10:19 | 44.53552 | 11.28314 | 131 ft | 32 kts | 298° |
| 2026-05-05 10:19 | 44.53642 | 11.28049 | 131 ft | 28 kts | 296° |
| 2026-05-05 10:19 | 44.53721 | 11.27830 | 131 ft | 22 kts | 297° |
| 2026-05-05 10:19 | 44.53784 | 11.27661 | 131 ft | 17 kts | 296° |
| 2026-05-05 10:20 | 44.53847 | 11.27554 | 131 ft | 13 kts | 331° |
| 2026-05-05 10:20 | 44.53932 | 11.27584 | 131 ft | 17 kts | 46° |
| 2026-05-05 10:20 | 44.53951 | 11.27731 | 131 ft | 38 kts | 113° |
| 2026-05-05 10:20 | 44.53738 | 11.28325 | 131 ft | 98 kts | 116° |
| 2026-05-05 10:21 | 44.53342 | 11.29434 | 157 ft | 148 kts | 115° |
| 2026-05-05 10:21 | 44.52845 | 11.30763 | 663 ft | 159 kts | 116° |
| 2026-05-05 10:21 | 44.52516 | 11.32234 | 1295 ft | 163 kts | 90° |
| 2026-05-05 10:21 | 44.52900 | 11.33714 | 1947 ft | 168 kts | 52° |
| 2026-05-05 10:22 | 44.53921 | 11.34650 | 2404 ft | 189 kts | 22° |
| 2026-05-05 10:22 | 44.55294 | 11.35148 | 2739 ft | 214 kts | 15° |
| 2026-05-05 10:22 | 44.56695 | 11.35872 | 3406 ft | 218 kts | 30° |
| 2026-05-05 10:22 | 44.58022 | 11.36945 | 4081 ft | 225 kts | 32° |
| 2026-05-05 10:23 | 44.59370 | 11.38100 | 4791 ft | 228 kts | 31° |
| 2026-05-05 10:23 | 44.60817 | 11.39152 | 5371 ft | 239 kts | 25° |
| 2026-05-05 10:23 | 44.62375 | 11.40103 | 6019 ft | 242 kts | 22° |
| 2026-05-05 10:23 | 44.63930 | 11.41041 | 6804 ft | 243 kts | 22° |
| 2026-05-05 10:24 | 44.65517 | 11.41909 | 7271 ft | 257 kts | 11° |
| 2026-05-05 10:24 | 44.67372 | 11.42019 | 7584 ft | 272 kts | 347° |
| 2026-05-05 10:24 | 44.69087 | 11.41026 | 8339 ft | 261 kts | 320° |
| 2026-05-05 10:24 | 44.70295 | 11.39169 | 9177 ft | 254 kts | 292° |
| 2026-05-05 10:25 | 44.70610 | 11.36785 | 9832 ft | 249 kts | 259° |
| 2026-05-05 10:25 | 44.69884 | 11.34634 | 10573 ft | 246 kts | 225° |
| 2026-05-05 10:25 | 44.68437 | 11.33413 | 11251 ft | 251 kts | 201° |
| 2026-05-05 10:25 | 44.66805 | 11.32444 | 11985 ft | 252 kts | 210° |
| 2026-05-05 10:26 | 44.65352 | 11.31055 | 12694 ft | 254 kts | 218° |
| 2026-05-05 10:26 | 44.63963 | 11.29488 | 13392 ft | 257 kts | 219° |
| 2026-05-05 10:26 | 44.62518 | 11.27878 | 13967 ft | 266 kts | 219° |
| 2026-05-05 10:26 | 44.61018 | 11.26218 | 14289 ft | 283 kts | 219° |
| 2026-05-05 10:27 | 44.59452 | 11.24486 | 14553 ft | 301 kts | 219° |
| 2026-05-05 10:27 | 44.57700 | 11.22552 | 14817 ft | 319 kts | 219° |
| 2026-05-05 10:27 | 44.55931 | 11.20593 | 15080 ft | 336 kts | 220° |
| 2026-05-05 10:27 | 44.54398 | 11.18077 | 15515 ft | 346 kts | 239° |
| 2026-05-05 10:28 | 44.53528 | 11.14864 | 16153 ft | 352 kts | 255° |
| 2026-05-05 10:28 | 44.53115 | 11.11466 | 16777 ft | 357 kts | 259° |
| 2026-05-05 10:28 | 44.52832 | 11.07998 | 17401 ft | 360 kts | 262° |
| 2026-05-05 10:28 | 44.52650 | 11.04473 | 17993 ft | 365 kts | 264° |
| 2026-05-05 10:29 | 44.52489 | 11.00954 | 18574 ft | 368 kts | 264° |
| 2026-05-05 10:29 | 44.52323 | 10.97365 | 19147 ft | 371 kts | 264° |
| 2026-05-05 10:29 | 44.52155 | 10.93737 | 19725 ft | 374 kts | 263° |
| 2026-05-05 10:29 | 44.51985 | 10.90072 | 20246 ft | 378 kts | 264° |
| 2026-05-05 10:30 | 44.51813 | 10.86384 | 20780 ft | 381 kts | 264° |
| 2026-05-05 10:30 | 44.51651 | 10.82662 | 21302 ft | 384 kts | 264° |
| 2026-05-05 10:30 | 44.51483 | 10.78904 | 21817 ft | 387 kts | 264° |
| 2026-05-05 10:30 | 44.51310 | 10.75126 | 22307 ft | 390 kts | 264° |
| 2026-05-05 10:31 | 44.51131 | 10.71308 | 22776 ft | 393 kts | 264° |
| 2026-05-05 10:31 | 44.50948 | 10.67479 | 23249 ft | 396 kts | 264° |
| 2026-05-05 10:31 | 44.50764 | 10.63615 | 23696 ft | 399 kts | 264° |
| 2026-05-05 10:31 | 44.50567 | 10.59718 | 24138 ft | 402 kts | 262° |
| 2026-05-05 10:32 | 44.50162 | 10.55848 | 24586 ft | 402 kts | 257° |
| 2026-05-05 10:32 | 44.49594 | 10.51999 | 25018 ft | 404 kts | 255° |
| 2026-05-05 10:32 | 44.48971 | 10.48141 | 25461 ft | 406 kts | 255° |
| 2026-05-05 10:32 | 44.48344 | 10.44281 | 25893 ft | 408 kts | 255° |
| 2026-05-05 10:33 | 44.47714 | 10.40395 | 26285 ft | 410 kts | 255° |
| 2026-05-05 10:33 | 44.47080 | 10.36489 | 26672 ft | 412 kts | 255° |
| 2026-05-05 10:33 | 44.46442 | 10.32560 | 27049 ft | 414 kts | 255° |
| 2026-05-05 10:33 | 44.45802 | 10.28621 | 27445 ft | 416 kts | 255° |
| 2026-05-05 10:34 | 44.45158 | 10.24663 | 27804 ft | 418 kts | 255° |
| 2026-05-05 10:34 | 44.44511 | 10.20692 | 28175 ft | 419 kts | 255° |
| 2026-05-05 10:34 | 44.43863 | 10.16724 | 28524 ft | 420 kts | 255° |
| 2026-05-05 10:34 | 44.43216 | 10.12765 | 28842 ft | 422 kts | 256° |
| 2026-05-05 10:35 | 44.42565 | 10.08695 | 29162 ft | 424 kts | 256° |
| 2026-05-05 10:35 | 44.41927 | 10.04656 | 29470 ft | 426 kts | 256° |
| 2026-05-05 10:35 | 44.41282 | 10.00604 | 29777 ft | 427 kts | 256° |
| 2026-05-05 10:35 | 44.40640 | 9.96596 | 30092 ft | 428 kts | 256° |
| 2026-05-05 10:36 | 44.39978 | 9.92486 | 30483 ft | 427 kts | 256° |
| 2026-05-05 10:36 | 44.39328 | 9.88472 | 30952 ft | 424 kts | 256° |
| 2026-05-05 10:36 | 44.38676 | 9.84464 | 31408 ft | 421 kts | 256° |
| 2026-05-05 10:36 | 44.38027 | 9.80485 | 31862 ft | 417 kts | 256° |
| 2026-05-05 10:37 | 44.37381 | 9.76540 | 32242 ft | 416 kts | 256° |
| 2026-05-05 10:37 | 44.36736 | 9.72617 | 32621 ft | 414 kts | 256° |
| 2026-05-05 10:37 | 44.36091 | 9.68703 | 33031 ft | 411 kts | 256° |
| 2026-05-05 10:37 | 44.35452 | 9.64834 | 33436 ft | 408 kts | 256° |
| 2026-05-05 10:38 | 44.34813 | 9.60976 | 33803 ft | 406 kts | 256° |
| 2026-05-05 10:38 | 44.34177 | 9.57145 | 34166 ft | 404 kts | 256° |
| 2026-05-05 10:38 | 44.33541 | 9.53327 | 34491 ft | 403 kts | 256° |
| 2026-05-05 10:38 | 44.32904 | 9.49508 | 34698 ft | 405 kts | 256° |
| 2026-05-05 10:39 | 44.32262 | 9.45673 | 34906 ft | 406 kts | 256° |
| 2026-05-05 10:39 | 44.31619 | 9.41834 | 35181 ft | 405 kts | 256° |
| 2026-05-05 10:39 | 44.30977 | 9.38013 | 35453 ft | 405 kts | 256° |
| 2026-05-05 10:39 | 44.30332 | 9.34186 | 35711 ft | 405 kts | 256° |
| 2026-05-05 10:40 | 44.29688 | 9.30368 | 35966 ft | 404 kts | 256° |
| 2026-05-05 10:40 | 44.29042 | 9.26549 | 36216 ft | 404 kts | 256° |
| 2026-05-05 10:40 | 44.28396 | 9.22740 | 36475 ft | 403 kts | 256° |
| 2026-05-05 10:40 | 44.27751 | 9.18946 | 36756 ft | 402 kts | 256° |
| 2026-05-05 10:41 | 44.27105 | 9.15153 | 36961 ft | 402 kts | 256° |
| 2026-05-05 10:41 | 44.26456 | 9.11348 | 36968 ft | 405 kts | 256° |
| 2026-05-05 10:41 | 44.25151 | 9.03723 | 36971 ft | 402 kts | 255° |
| 2026-05-05 10:42 | 44.23212 | 8.92457 | 36970 ft | 397 kts | 255° |
| 2026-05-05 10:43 | 44.21906 | 8.84912 | 36970 ft | 398 kts | 255° |
| 2026-05-05 10:43 | 44.20604 | 8.77420 | 36972 ft | 397 kts | 255° |
| 2026-05-05 10:44 | 44.19299 | 8.69942 | 36974 ft | 396 kts | 255° |
| 2026-05-05 10:44 | 44.17984 | 8.62434 | 36977 ft | 396 kts | 255° |
| 2026-05-05 10:45 | 44.16886 | 8.56195 | 36980 ft | 396 kts | 255° |
| 2026-05-05 10:45 | 44.15564 | 8.48704 | 36984 ft | 395 kts | 255° |
| 2026-05-05 10:46 | 44.14249 | 8.41285 | 36988 ft | 395 kts | 255° |
| 2026-05-05 10:46 | 44.12930 | 8.33876 | 36981 ft | 394 kts | 255° |
| 2026-05-05 10:47 | 44.11608 | 8.26480 | 36970 ft | 393 kts | 255° |
| 2026-05-05 10:47 | 44.10285 | 8.19103 | 36966 ft | 393 kts | 255° |
| 2026-05-05 10:48 | 44.08984 | 8.11725 | 36969 ft | 393 kts | 255° |
| 2026-05-05 10:48 | 44.07657 | 8.04362 | 36965 ft | 393 kts | 255° |
| 2026-05-05 10:49 | 44.06315 | 7.97005 | 36966 ft | 393 kts | 254° |
| 2026-05-05 10:49 | 44.04962 | 7.89640 | 36968 ft | 393 kts | 254° |
| 2026-05-05 10:50 | 44.03606 | 7.82287 | 36971 ft | 393 kts | 254° |
| 2026-05-05 10:50 | 44.02141 | 7.74985 | 36977 ft | 392 kts | 249° |
| 2026-05-05 10:51 | 44.00037 | 7.67993 | 36981 ft | 392 kts | 246° |
| 2026-05-05 10:51 | 43.97837 | 7.61018 | 36982 ft | 392 kts | 246° |
| 2026-05-05 10:52 | 43.95644 | 7.54085 | 36975 ft | 392 kts | 246° |
| 2026-05-05 10:52 | 43.93450 | 7.47175 | 36981 ft | 391 kts | 246° |
| 2026-05-05 10:53 | 43.91250 | 7.40264 | 36978 ft | 391 kts | 245° |
| 2026-05-05 10:53 | 43.89048 | 7.33367 | 36974 ft | 391 kts | 245° |
| 2026-05-05 10:54 | 43.86867 | 7.26447 | 36970 ft | 392 kts | 246° |
| 2026-05-05 10:54 | 43.84687 | 7.19541 | 36969 ft | 391 kts | 245° |
| 2026-05-05 10:55 | 43.82498 | 7.12646 | 36967 ft | 391 kts | 245° |
| 2026-05-05 10:55 | 43.80303 | 7.05769 | 36966 ft | 390 kts | 245° |
| 2026-05-05 10:56 | 43.78103 | 6.98907 | 36966 ft | 390 kts | 245° |
| 2026-05-05 10:56 | 43.75895 | 6.92039 | 36964 ft | 391 kts | 245° |
| 2026-05-05 10:57 | 43.73683 | 6.85180 | 36962 ft | 390 kts | 245° |
| 2026-05-05 10:57 | 43.71471 | 6.78342 | 36960 ft | 390 kts | 244° |
| 2026-05-05 10:58 | 43.69255 | 6.71510 | 36960 ft | 390 kts | 244° |
| 2026-05-05 10:58 | 43.67035 | 6.64680 | 36957 ft | 389 kts | 244° |
| 2026-05-05 10:59 | 43.64811 | 6.57860 | 36954 ft | 390 kts | 244° |
| 2026-05-05 10:59 | 43.62582 | 6.51042 | 36951 ft | 390 kts | 244° |
| 2026-05-05 11:00 | 43.60351 | 6.44234 | 36947 ft | 389 kts | 244° |
| 2026-05-05 11:00 | 43.58134 | 6.37484 | 36944 ft | 389 kts | 244° |
| 2026-05-05 11:01 | 43.55883 | 6.30650 | 36945 ft | 389 kts | 244° |
| 2026-05-05 11:01 | 43.53641 | 6.23862 | 36941 ft | 389 kts | 244° |
| 2026-05-05 11:02 | 43.51411 | 6.17122 | 36942 ft | 389 kts | 244° |
| 2026-05-05 11:02 | 43.49145 | 6.10298 | 36941 ft | 389 kts | 243° |
| 2026-05-05 11:03 | 43.46907 | 6.03571 | 36941 ft | 389 kts | 243° |
| 2026-05-05 11:03 | 43.44650 | 5.96804 | 36946 ft | 388 kts | 243° |
| 2026-05-05 11:04 | 43.42463 | 5.90264 | 36959 ft | 388 kts | 243° |
| 2026-05-05 11:04 | 43.40187 | 5.83472 | 36963 ft | 388 kts | 243° |
| 2026-05-05 11:05 | 43.37922 | 5.76730 | 36964 ft | 388 kts | 243° |
| 2026-05-05 11:05 | 43.35669 | 5.69981 | 36960 ft | 388 kts | 244° |
| 2026-05-05 11:06 | 43.33406 | 5.63238 | 36958 ft | 388 kts | 243° |
| 2026-05-05 11:06 | 43.31128 | 5.56517 | 36959 ft | 388 kts | 243° |
| 2026-05-05 11:07 | 43.28843 | 5.49809 | 36960 ft | 388 kts | 243° |
| 2026-05-05 11:07 | 43.26551 | 5.43100 | 36961 ft | 388 kts | 243° |
| 2026-05-05 11:08 | 43.24272 | 5.36437 | 36962 ft | 388 kts | 243° |
| 2026-05-05 11:08 | 43.22024 | 5.29654 | 36963 ft | 389 kts | 245° |
| 2026-05-05 11:09 | 43.19909 | 5.22896 | 36962 ft | 389 kts | 245° |
| 2026-05-05 11:09 | 43.17783 | 5.16088 | 36957 ft | 389 kts | 245° |
| 2026-05-05 11:10 | 43.15661 | 5.09282 | 36955 ft | 389 kts | 245° |
| 2026-05-05 11:10 | 43.13499 | 5.02438 | 36953 ft | 389 kts | 245° |
| 2026-05-05 11:11 | 43.11341 | 4.95655 | 36952 ft | 389 kts | 245° |
| 2026-05-05 11:11 | 43.09176 | 4.88876 | 36946 ft | 389 kts | 244° |
| 2026-05-05 11:12 | 43.06986 | 4.82145 | 36933 ft | 387 kts | 240° |
| 2026-05-05 11:12 | 43.05496 | 4.79096 | 36936 ft | 386 kts | 229° |
| 2026-05-05 11:12 | 43.03561 | 4.76538 | 36937 ft | 388 kts | 219° |
| 2026-05-05 11:13 | 42.99204 | 4.72151 | 36935 ft | 390 kts | 218° |
| 2026-05-05 11:13 | 42.94772 | 4.67869 | 36936 ft | 390 kts | 217° |
| 2026-05-05 11:14 | 42.90314 | 4.63647 | 36935 ft | 390 kts | 217° |
| 2026-05-05 11:14 | 42.85845 | 4.59464 | 36936 ft | 389 kts | 217° |
| 2026-05-05 11:15 | 42.81312 | 4.55253 | 36936 ft | 389 kts | 217° |
| 2026-05-05 11:15 | 42.77550 | 4.51775 | 36936 ft | 389 kts | 217° |
| 2026-05-05 11:16 | 42.73046 | 4.47589 | 36936 ft | 390 kts | 217° |
| 2026-05-05 11:16 | 42.68558 | 4.43438 | 36937 ft | 390 kts | 217° |
| 2026-05-05 11:17 | 42.64075 | 4.39310 | 36937 ft | 390 kts | 217° |
| 2026-05-05 11:17 | 42.59578 | 4.35181 | 36938 ft | 390 kts | 217° |
| 2026-05-05 11:18 | 42.55084 | 4.31065 | 36938 ft | 390 kts | 217° |
| 2026-05-05 11:18 | 42.50582 | 4.26950 | 36938 ft | 390 kts | 217° |
| 2026-05-05 11:19 | 42.46090 | 4.22838 | 36938 ft | 390 kts | 217° |
| 2026-05-05 11:19 | 42.41598 | 4.18732 | 36937 ft | 389 kts | 217° |
| 2026-05-05 11:20 | 42.37103 | 4.14647 | 36937 ft | 389 kts | 217° |
| 2026-05-05 11:20 | 42.32588 | 4.10557 | 36937 ft | 389 kts | 217° |
| 2026-05-05 11:21 | 42.28072 | 4.06475 | 36937 ft | 390 kts | 217° |
| 2026-05-05 11:21 | 42.23613 | 4.02347 | 36933 ft | 387 kts | 223° |
| 2026-05-05 11:21 | 42.21741 | 3.99762 | 36941 ft | 385 kts | 234° |
| 2026-05-05 11:22 | 42.20316 | 3.96703 | 36938 ft | 385 kts | 243° |
| 2026-05-05 11:22 | 42.17853 | 3.90308 | 36937 ft | 385 kts | 244° |
| 2026-05-05 11:23 | 42.15622 | 3.83747 | 36937 ft | 385 kts | 245° |
| 2026-05-05 11:23 | 42.13427 | 3.77156 | 36937 ft | 385 kts | 245° |
| 2026-05-05 11:24 | 42.11243 | 3.70577 | 36936 ft | 385 kts | 245° |
| 2026-05-05 11:24 | 42.09011 | 3.64021 | 36936 ft | 385 kts | 241° |
| 2026-05-05 11:25 | 42.06104 | 3.57967 | 36936 ft | 385 kts | 235° |
| 2026-05-05 11:25 | 42.02996 | 3.52102 | 36936 ft | 385 kts | 235° |
| 2026-05-05 11:26 | 41.99880 | 3.46248 | 36937 ft | 385 kts | 235° |
| 2026-05-05 11:26 | 41.96764 | 3.40413 | 36936 ft | 383 kts | 235° |
| 2026-05-05 11:27 | 41.93657 | 3.34610 | 36936 ft | 382 kts | 235° |
| 2026-05-05 11:27 | 41.90549 | 3.28819 | 36936 ft | 382 kts | 235° |
| 2026-05-05 11:28 | 41.87449 | 3.23025 | 36937 ft | 382 kts | 235° |
| 2026-05-05 11:28 | 41.84365 | 3.17233 | 36940 ft | 381 kts | 235° |
| 2026-05-05 11:29 | 41.81274 | 3.11458 | 36938 ft | 381 kts | 235° |
| 2026-05-05 11:29 | 41.78185 | 3.05706 | 36937 ft | 380 kts | 235° |
| 2026-05-05 11:30 | 41.75087 | 2.99955 | 36938 ft | 380 kts | 235° |
| 2026-05-05 11:30 | 41.71987 | 2.94215 | 36938 ft | 381 kts | 235° |
| 2026-05-05 11:31 | 41.68883 | 2.88481 | 36938 ft | 380 kts | 235° |
| 2026-05-05 11:31 | 41.65778 | 2.82759 | 36939 ft | 379 kts | 235° |
| 2026-05-05 11:32 | 41.62677 | 2.77052 | 36940 ft | 380 kts | 235° |
| 2026-05-05 11:32 | 41.59566 | 2.71340 | 36943 ft | 380 kts | 235° |
| 2026-05-05 11:33 | 41.56452 | 2.65631 | 36948 ft | 380 kts | 235° |
| 2026-05-05 11:33 | 41.53343 | 2.59943 | 36949 ft | 380 kts | 235° |
| 2026-05-05 11:34 | 41.50256 | 2.54307 | 36949 ft | 380 kts | 235° |
| 2026-05-05 11:34 | 41.47113 | 2.48580 | 36949 ft | 380 kts | 235° |
| 2026-05-05 11:35 | 41.43967 | 2.42857 | 36950 ft | 380 kts | 234° |
| 2026-05-05 11:35 | 41.40848 | 2.37195 | 36950 ft | 379 kts | 234° |
| 2026-05-05 11:36 | 41.37725 | 2.31534 | 36950 ft | 379 kts | 234° |
| 2026-05-05 11:36 | 41.34601 | 2.25882 | 36947 ft | 379 kts | 234° |
| 2026-05-05 11:37 | 41.31473 | 2.20233 | 36943 ft | 379 kts | 234° |
| 2026-05-05 11:37 | 41.28343 | 2.14590 | 36938 ft | 379 kts | 234° |
| 2026-05-05 11:38 | 41.25191 | 2.08919 | 36935 ft | 379 kts | 234° |
| 2026-05-05 11:38 | 41.22073 | 2.03277 | 36935 ft | 378 kts | 234° |
| 2026-05-05 11:39 | 41.18953 | 1.97668 | 36935 ft | 377 kts | 234° |
| 2026-05-05 11:39 | 41.15824 | 1.92075 | 36935 ft | 377 kts | 234° |
| 2026-05-05 11:40 | 41.12688 | 1.86488 | 36935 ft | 378 kts | 234° |
| 2026-05-05 11:40 | 41.09534 | 1.80879 | 36935 ft | 376 kts | 234° |
| 2026-05-05 11:41 | 41.06404 | 1.75319 | 36935 ft | 376 kts | 234° |
| 2026-05-05 11:41 | 41.03123 | 1.69915 | 36936 ft | 377 kts | 230° |
| 2026-05-05 11:42 | 40.99577 | 1.64788 | 36936 ft | 377 kts | 230° |
| 2026-05-05 11:42 | 40.96009 | 1.59621 | 36936 ft | 377 kts | 230° |
| 2026-05-05 11:43 | 40.93042 | 1.55308 | 36935 ft | 377 kts | 230° |
| 2026-05-05 11:43 | 40.89497 | 1.50148 | 36936 ft | 377 kts | 230° |
| 2026-05-05 11:44 | 40.85980 | 1.45025 | 36936 ft | 376 kts | 230° |
| 2026-05-05 11:44 | 40.82464 | 1.39909 | 36936 ft | 375 kts | 230° |
| 2026-05-05 11:45 | 40.78988 | 1.34875 | 36936 ft | 376 kts | 230° |
| 2026-05-05 11:45 | 40.75422 | 1.29725 | 36936 ft | 376 kts | 230° |
| 2026-05-05 11:46 | 40.71902 | 1.24648 | 36936 ft | 376 kts | 230° |
| 2026-05-05 11:46 | 40.68387 | 1.19554 | 36935 ft | 375 kts | 230° |
| 2026-05-05 11:47 | 40.64868 | 1.14476 | 36936 ft | 376 kts | 230° |
| 2026-05-05 11:47 | 40.61339 | 1.09401 | 36937 ft | 374 kts | 230° |